createdAt,value
2018-04-21T00:00:18.977Z,13.29
2018-04-21T00:05:21.453Z,13.25
2018-04-21T00:10:23.945Z,13.24
2018-04-21T00:15:26.428Z,13.13
2018-04-21T00:20:28.900Z,13.11
2018-04-21T00:25:31.389Z,12.97
2018-04-21T00:30:33.880Z,12.91
2018-04-21T00:35:36.447Z,12.85
2018-04-21T00:40:40.800Z,12.80
2018-04-21T00:45:44.827Z,12.74
2018-04-21T00:50:48.076Z,12.64
2018-04-21T00:55:50.980Z,12.60
2018-04-21T01:00:53.477Z,12.57
2018-04-21T01:05:55.963Z,12.48
2018-04-21T01:10:58.448Z,12.45
2018-04-21T01:16:00.967Z,12.38
2018-04-21T01:21:03.452Z,12.29
2018-04-21T01:26:06.554Z,12.26
2018-04-21T01:31:09.226Z,12.19
2018-04-21T01:36:11.748Z,12.14
2018-04-21T01:41:14.265Z,12.12
2018-04-21T01:46:16.757Z,12.05
2018-04-21T01:51:19.240Z,12.04
2018-04-21T01:56:21.818Z,11.97
2018-04-21T02:01:24.316Z,11.93
2018-04-21T02:06:26.824Z,11.88
2018-04-21T02:11:29.317Z,11.82
2018-04-21T02:16:32.144Z,11.74
2018-04-21T02:21:34.637Z,11.68
2018-04-21T02:26:37.146Z,11.67
2018-04-21T02:31:42.162Z,11.58
2018-04-21T02:36:45.258Z,11.53
2018-04-21T02:41:47.801Z,11.50
2018-04-21T02:46:50.279Z,11.44
2018-04-21T02:51:52.818Z,11.35
2018-04-21T02:56:55.321Z,11.37
2018-04-21T03:01:58.377Z,11.34
2018-04-21T03:07:00.873Z,11.21
2018-04-21T03:12:03.344Z,11.17
2018-04-21T03:17:08.213Z,11.25
2018-04-21T03:22:12.154Z,11.09
2018-04-21T03:27:14.683Z,10.98
2018-04-21T03:32:20.316Z,11.00
2018-04-21T03:37:22.814Z,10.94
2018-04-21T03:42:25.307Z,10.94
2018-04-21T03:47:27.797Z,11.11
2018-04-21T03:52:30.269Z,11.02
2018-04-21T03:57:32.936Z,11.08
2018-04-21T04:02:35.609Z,11.13
2018-04-21T04:07:38.202Z,11.25
2018-04-21T04:12:40.895Z,11.29
2018-04-21T04:17:55.391Z,11.48
2018-04-21T04:22:57.918Z,11.85
2018-04-21T04:28:00.404Z,12.04
2018-04-21T04:33:02.898Z,12.29
2018-04-21T04:38:05.371Z,12.53
2018-04-21T04:43:11.898Z,12.83
2018-04-21T04:48:15.050Z,13.11
2018-04-21T04:53:17.591Z,13.58
2018-04-21T04:58:20.106Z,14.16
2018-04-21T05:03:22.580Z,14.69
2018-04-21T05:08:25.863Z,15.38
2018-04-21T05:13:28.456Z,17.24
2018-04-21T05:18:30.961Z,18.04
2018-04-21T05:23:33.867Z,19.10
2018-04-21T05:28:37.324Z,19.86
2018-04-21T05:33:40.166Z,19.90
2018-04-21T05:38:42.690Z,19.96
2018-04-21T05:43:45.197Z,20.79
2018-04-21T05:48:47.748Z,21.48
2018-04-21T05:53:50.441Z,22.01
2018-04-21T05:58:52.901Z,21.54
2018-04-21T06:03:55.377Z,22.65
2018-04-21T06:08:57.969Z,21.70
2018-04-21T06:14:00.450Z,22.43
2018-04-21T06:19:03.158Z,20.77
2018-04-21T06:24:05.695Z,19.48
2018-04-21T06:29:08.356Z,18.43
2018-04-21T06:34:10.981Z,18.23
2018-04-21T06:39:13.621Z,18.35
2018-04-21T06:44:16.155Z,18.65
2018-04-21T06:49:18.648Z,18.79
2018-04-21T06:54:21.133Z,18.85
2018-04-21T06:59:24.260Z,18.47
2018-04-21T07:04:26.784Z,18.74
2018-04-21T07:09:29.307Z,18.78
2018-04-21T07:14:31.775Z,19.09
2018-04-21T07:19:35.029Z,18.85
2018-04-21T07:24:37.616Z,18.52
2018-04-21T07:29:40.106Z,18.88
2018-04-21T07:34:42.613Z,18.96
2018-04-21T07:39:45.133Z,19.02
2018-04-21T07:44:47.768Z,19.24
2018-04-21T07:49:50.256Z,18.96
2018-04-21T07:54:52.745Z,19.42
2018-04-21T07:59:55.266Z,19.56
2018-04-21T08:04:58.495Z,19.34
2018-04-21T08:10:00.978Z,19.51
2018-04-21T08:15:03.507Z,19.28
2018-04-21T08:20:06.535Z,18.89
2018-04-21T08:25:09.118Z,19.31
2018-04-21T08:30:11.755Z,19.48
2018-04-21T08:35:14.305Z,20.22
2018-04-21T08:40:16.837Z,19.80
2018-04-21T08:45:19.316Z,20.49
2018-04-21T08:50:21.815Z,20.71
2018-04-21T08:55:24.341Z,20.68
2018-04-21T09:00:27.098Z,20.73
2018-04-21T09:05:29.670Z,21.51
2018-04-21T09:10:32.155Z,23.49
2018-04-21T09:15:34.626Z,24.47
2018-04-21T09:20:37.101Z,23.60
2018-04-21T09:25:40.111Z,25.30
2018-04-21T09:30:42.613Z,25.02
2018-04-21T09:35:45.112Z,24.60
2018-04-21T09:40:47.585Z,25.79
2018-04-21T09:45:50.073Z,25.70
2018-04-21T09:50:52.576Z,25.00
2018-04-21T09:55:55.080Z,24.82
2018-04-21T10:00:57.548Z,24.49
2018-04-21T10:06:00.036Z,24.70
2018-04-21T10:11:02.531Z,24.40
2018-04-21T10:16:05.012Z,24.10
2018-04-21T10:21:07.514Z,24.83
2018-04-21T10:26:10.840Z,24.21
2018-04-21T10:31:13.334Z,24.07
2018-04-21T10:36:15.799Z,24.56
2018-04-21T10:41:18.276Z,25.45
2018-04-21T10:46:20.746Z,25.11
2018-04-21T10:51:23.218Z,25.24
2018-04-21T10:56:25.957Z,24.79
2018-04-21T11:01:28.656Z,23.80
2018-04-21T11:06:31.169Z,23.51
2018-04-21T11:11:33.664Z,24.55
2018-04-21T11:16:36.180Z,25.05
2018-04-21T11:21:38.679Z,25.08
2018-04-21T11:26:41.173Z,25.04
2018-04-21T11:31:43.645Z,24.87
2018-04-21T11:36:46.180Z,23.79
2018-04-21T11:41:48.650Z,24.09
2018-04-21T11:46:51.123Z,24.10
2018-04-21T11:51:53.581Z,24.26
2018-04-21T11:56:56.056Z,24.25
2018-04-21T12:01:58.539Z,24.46
2018-04-21T12:07:01.024Z,24.77
2018-04-21T12:12:03.592Z,24.27
2018-04-21T12:17:06.097Z,24.39
2018-04-21T12:22:08.632Z,24.42
2018-04-21T12:27:11.096Z,24.79
2018-04-21T12:32:14.477Z,25.36
2018-04-21T12:37:16.964Z,24.43
2018-04-21T12:42:19.451Z,24.49
2018-04-21T12:47:21.946Z,24.81
2018-04-21T12:52:24.416Z,24.37
2018-04-21T12:57:26.870Z,24.91
2018-04-21T13:02:29.333Z,24.92
2018-04-21T13:07:31.809Z,25.16
2018-04-21T13:12:34.258Z,24.52
2018-04-21T13:17:37.015Z,23.79
2018-04-21T13:22:39.697Z,24.16
2018-04-21T13:27:42.267Z,24.92
2018-04-21T13:32:44.719Z,24.71
2018-04-21T13:37:47.195Z,23.86
2018-04-21T13:42:49.693Z,24.21
2018-04-21T13:47:52.296Z,23.47
2018-04-21T13:52:54.775Z,24.26
2018-04-21T13:57:57.243Z,24.60
2018-04-21T14:02:59.695Z,23.66
2018-04-21T14:08:02.165Z,23.51
2018-04-21T14:13:04.635Z,23.56
2018-04-21T14:18:07.161Z,24.27
2018-04-21T14:23:09.686Z,24.52
2018-04-21T14:28:12.204Z,24.19
2018-04-21T14:33:14.712Z,24.56
2018-04-21T14:38:17.196Z,24.34
2018-04-21T14:43:19.699Z,24.68
2018-04-21T14:48:22.185Z,24.39
2018-04-21T14:53:24.661Z,24.09
2018-04-21T14:58:27.132Z,24.25
2018-04-21T15:03:29.623Z,24.84
2018-04-21T15:08:34.169Z,24.47
2018-04-21T15:13:36.671Z,24.30
2018-04-21T15:18:39.289Z,24.58
2018-04-21T15:23:41.766Z,24.57
2018-04-21T15:28:44.262Z,24.74
2018-04-21T15:33:46.726Z,24.38
2018-04-21T15:38:49.224Z,23.68
2018-04-21T15:43:52.296Z,23.45
2018-04-21T15:48:54.776Z,23.83
2018-04-21T15:53:57.412Z,23.40
2018-04-21T15:58:59.887Z,23.59
2018-04-21T16:04:02.385Z,23.17
2018-04-21T16:09:04.862Z,23.57
2018-04-21T16:14:07.440Z,23.20
2018-04-21T16:19:09.937Z,23.21
2018-04-21T16:24:12.456Z,23.79
2018-04-21T16:29:14.991Z,23.07
2018-04-21T16:34:17.458Z,22.81
2018-04-21T16:39:20.791Z,22.71
2018-04-21T16:44:23.260Z,22.34
2018-04-21T16:49:25.735Z,22.27
2018-04-21T16:54:28.191Z,22.24
2018-04-21T16:59:30.654Z,21.82
2018-04-21T17:04:33.202Z,21.59
2018-04-21T17:09:35.672Z,21.21
2018-04-21T17:14:38.184Z,20.92
2018-04-21T17:19:40.707Z,20.82
2018-04-21T17:24:43.272Z,20.56
2018-04-21T17:29:46.424Z,20.42
2018-04-21T17:34:48.908Z,19.98
2018-04-21T17:39:51.408Z,19.81
2018-04-21T17:44:53.869Z,19.46
2018-04-21T17:49:56.359Z,19.19
2018-04-21T17:54:58.846Z,18.93
2018-04-21T18:00:02.190Z,18.70
2018-04-21T18:05:04.813Z,18.46
2018-04-21T18:10:07.711Z,18.03
2018-04-21T18:15:10.649Z,17.82
2018-04-21T18:20:13.814Z,17.57
2018-04-21T18:25:16.326Z,17.34
2018-04-21T18:30:19.557Z,17.09
2018-04-21T18:35:23.093Z,16.81
2018-04-21T18:40:25.584Z,16.36
2018-04-21T18:45:28.988Z,16.04
2018-04-21T18:50:31.453Z,15.69
2018-04-21T18:55:33.959Z,15.38
2018-04-21T19:00:36.992Z,15.07
2018-04-21T19:05:40.266Z,14.84
2018-04-21T19:10:45.399Z,14.58
2018-04-21T19:15:47.907Z,14.30
2018-04-21T19:20:50.431Z,14.06
2018-04-21T19:25:53.563Z,13.90
2018-04-21T19:30:56.045Z,13.66
2018-04-21T19:35:58.516Z,13.56
2018-04-21T19:41:01.033Z,13.43
2018-04-21T19:46:03.578Z,13.24
2018-04-21T19:51:09.097Z,13.04
2018-04-21T19:56:11.875Z,12.89
2018-04-21T20:01:14.652Z,12.72
2018-04-21T20:06:18.017Z,12.60
2018-04-21T20:11:21.016Z,12.42
2018-04-21T20:16:23.615Z,12.30
2018-04-21T20:21:26.084Z,12.15
2018-04-21T20:26:28.530Z,12.14
2018-04-21T20:31:31.021Z,11.91
2018-04-21T20:36:33.504Z,11.78
2018-04-21T20:41:36.077Z,11.72
2018-04-21T20:46:38.751Z,11.80
2018-04-21T20:51:42.017Z,11.45
2018-04-21T20:56:44.866Z,11.26
2018-04-21T21:01:47.407Z,11.15
2018-04-21T21:06:49.920Z,11.08
2018-04-21T21:11:52.449Z,10.90
2018-04-21T21:16:54.922Z,10.74
2018-04-21T21:21:57.397Z,10.80
2018-04-21T21:26:59.859Z,10.58
2018-04-21T21:32:02.385Z,10.40
2018-04-21T21:37:04.858Z,10.29
2018-04-21T21:42:08.389Z,10.22
2018-04-21T21:47:11.308Z,10.16
2018-04-21T21:52:13.887Z,10.04
2018-04-21T21:57:16.368Z,9.91
2018-04-21T22:02:19.788Z,9.84
2018-04-21T22:07:28.369Z,9.72
2018-04-21T22:12:30.836Z,9.53
2018-04-21T22:17:33.335Z,9.46
2018-04-21T22:22:35.853Z,9.29
2018-04-21T22:27:38.392Z,9.12
2018-04-21T22:32:40.928Z,9.04
2018-04-21T22:37:43.451Z,8.91
2018-04-21T22:42:45.992Z,8.87
2018-04-21T22:47:48.478Z,8.78
2018-04-21T22:52:50.981Z,8.60
2018-04-21T22:57:53.466Z,8.44
2018-04-21T23:02:55.965Z,8.45
2018-04-21T23:07:59.700Z,8.31
2018-04-21T23:13:02.158Z,8.32
2018-04-21T23:18:04.628Z,8.29
2018-04-21T23:23:07.164Z,8.16
2018-04-21T23:28:10.151Z,8.06
2018-04-21T23:33:12.904Z,7.98
2018-04-21T23:38:15.437Z,7.94
2018-04-21T23:43:17.989Z,7.86
2018-04-21T23:48:20.524Z,7.80
2018-04-21T23:53:23.021Z,7.77
2018-04-21T23:58:25.491Z,7.60
